EDT,Max TemperatureF,Mean TemperatureF,Min TemperatureF,Max Dew PointF,MeanDew PointF,Min DewpointF,Max Humidity, Mean Humidity, Min Humidity, Max Sea Level PressureIn, Mean Sea Level PressureIn, Min Sea Level PressureIn, Max VisibilityMiles, Mean VisibilityMiles, Min VisibilityMiles, Max Wind SpeedMPH, Mean Wind SpeedMPH, Max Gust SpeedMPH,PrecipitationIn, CloudCover, Events, WindDirDegrees
2011-10-1,64,60,55,63,60,54,100,94,88,29.72,29.66,29.61,10,4,0,14,4,,0.06,8,,47
2011-10-2,57,54,51,57,53,50,100,95,94,29.90,29.86,29.82,9,4,2,16,11,22,1.28,8,,18
2011-10-3,64,60,55,57,55,54,100,89,72,30.07,30.02,29.91,10,8,2,9,4,,0.01,7,,56
2011-10-4,57,55,53,55,54,52,100,94,88,30.06,29.96,29.88,10,8,2,13,7,18,0.81,8,,16
2011-10-5,62,56,50,52,44,28,94,68,41,30.12,29.94,29.86,10,10,10,18,8,32,0.00,5,,333
2011-10-6,57,42,28,34,27,21,100,60,26,30.27,30.20,30.17,10,10,10,14,4,22,0.00,0,,301
2011-10-7,60,45,30,37,32,28,100,68,36,30.44,30.39,30.35,10,10,10,7,3,,0.00,0,,225
2011-10-8,80,61,42,55,48,39,100,66,37,30.39,30.33,30.29,10,10,10,12,3,,0.00,0,,268
2011-10-9,84,67,50,52,47,46,87,49,27,30.29,30.26,30.19,10,10,10,13,7,21,0.00,0,,291
2011-10-10,80,64,48,57,53,46,93,62,42,30.17,30.12,30.05,10,10,7,20,7,25,0.00,0,,286
2011-10-11,64,52,39,46,41,36,93,73,42,30.27,30.22,30.15,10,10,2,8,2,,0.00,0,,97
2011-10-12,57,48,39,52,45,37,100,82,63,30.28,30.23,30.13,10,10,7,8,3,,0.00,4,,72
2011-10-13,59,56,53,57,54,52,100,93,88,30.12,29.97,29.81,10,6,2,15,8,17,0.53,8,,43
2011-10-14,64,60,57,63,58,55,100,95,88,29.79,29.69,29.45,10,3,0,12,6,16,0.23,8,,47
2011-10-15,62,58,53,61,47,39,94,67,45,29.56,29.44,29.24,10,10,10,20,11,30,0.00,3,,220
2011-10-16,60,53,46,41,38,36,81,52,39,29.70,29.65,29.59,10,10,10,22,13,32,0.00,5,,237
2011-10-17,62,55,48,46,38,30,87,54,31,29.66,29.60,29.52,10,10,10,22,9,30,0.00,4,,247
2011-10-18,62,48,35,45,39,34,93,71,42,29.94,29.80,29.67,10,10,7,14,3,22,0.00,1,,235
2011-10-19,55,46,37,52,44,36,100,88,72,30.03,29.95,29.83,10,9,4,18,5,28,0.44,6,,33
2011-10-20,66,58,51,61,52,48,100,89,63,29.70,29.55,29.45,10,6,1,17,11,24,0.60,6,,38
2011-10-21,60,53,46,46,43,39,87,67,48,29.88,29.74,29.62,10,10,10,17,7,23,0.00,4,,228
2011-10-22,59,47,35,45,40,34,100,73,48,30.01,29.95,29.91,10,10,10,13,4,21,0.00,7,,259
2011-10-23,57,44,30,45,37,28,100,77,51,30.11,30.07,30.03,10,10,10,9,2,,0.00,3,,227
2011-10-24,57,44,30,46,37,28,100,80,58,30.13,30.07,29.94,10,9,5,9,2,,0.00,2,,217
2011-10-25,57,46,35,48,38,28,100,67,38,29.90,29.85,29.80,10,8,0,22,6,31,0.00,2,,276
2011-10-26,48,42,37,41,35,30,87,72,58,29.93,29.86,29.77,10,10,10,10,6,,0.00,5,,255
2011-10-27,44,40,35,41,37,34,100,90,81,29.80,29.75,29.70,10,10,5,12,5,17,0.29,8,,25
2011-10-28,46,35,24,34,27,19,100,72,37,30.18,30.04,29.85,10,10,10,15,5,22,0.01,1,,282
2011-10-29,39,31,23,30,25,18,100,75,52,30.27,30.20,30.06,10,10,2,16,3,23,0.00,3,,34
2011-10-30,42,38,33,34,30,25,100,79,53,30.09,29.86,29.72,10,6,1,21,15,30,0.85,6,,337
2011-10-31,51,36,21,34,26,18,100,74,41,30.39,30.33,30.24,10,10,5,8,1,,0.02,0,,220